sensor_id;sensor_type;location;lat;lon;timestamp;P1;durP1;ratioP1;P2;durP2;ratioP2
20431;SDS011;10375;49.136;10.366;2023-09-12T00:02:15;15.93;;;8.52;;
20431;SDS011;10375;49.136;10.366;2023-09-12T00:04:42;15.55;;;6.93;;
20431;SDS011;10375;49.136;10.366;2023-09-12T00:07:09;12.90;;;7.00;;
20431;SDS011;10375;49.136;10.366;2023-09-12T00:09:37;16.80;;;7.03;;
20431;SDS011;10375;49.136;10.366;2023-09-12T00:12:04;16.92;;;7.88;;
20431;SDS011;10375;49.136;10.366;2023-09-12T00:14:31;16.48;;;8.63;;
20431;SDS011;10375;49.136;10.366;2023-09-12T00:16:59;20.90;;;7.65;;
20431;SDS011;10375;49.136;10.366;2023-09-12T00:19:27;13.90;;;7.63;;
20431;SDS011;10375;49.136;10.366;2023-09-12T00:21:54;13.77;;;8.25;;
20431;SDS011;10375;49.136;10.366;2023-09-12T00:24:21;18.42;;;7.70;;
20431;SDS011;10375;49.136;10.366;2023-09-12T00:26:49;14.43;;;7.05;;
20431;SDS011;10375;49.136;10.366;2023-09-12T00:29:16;13.85;;;7.18;;
20431;SDS011;10375;49.136;10.366;2023-09-12T00:31:43;14.98;;;8.23;;
20431;SDS011;10375;49.136;10.366;2023-09-12T00:34:11;17.75;;;7.68;;
20431;SDS011;10375;49.136;10.366;2023-09-12T00:36:42;22.00;;;7.47;;
20431;SDS011;10375;49.136;10.366;2023-09-12T00:39:09;22.58;;;8.07;;
20431;SDS011;10375;49.136;10.366;2023-09-12T00:41:36;17.92;;;7.85;;
20431;SDS011;10375;49.136;10.366;2023-09-12T00:44:04;18.05;;;8.15;;
20431;SDS011;10375;49.136;10.366;2023-09-12T00:46:31;12.10;;;6.68;;
20431;SDS011;10375;49.136;10.366;2023-09-12T00:48:59;12.93;;;7.40;;
20431;SDS011;10375;49.136;10.366;2023-09-12T00:51:27;15.23;;;7.45;;
20431;SDS011;10375;49.136;10.366;2023-09-12T00:53:56;15.48;;;7.78;;
20431;SDS011;10375;49.136;10.366;2023-09-12T00:56:24;18.27;;;8.10;;
20431;SDS011;10375;49.136;10.366;2023-09-12T00:58:51;14.05;;;8.43;;
20431;SDS011;10375;49.136;10.366;2023-09-12T01:01:19;16.55;;;8.57;;
20431;SDS011;10375;49.136;10.366;2023-09-12T01:03:47;16.27;;;8.13;;
20431;SDS011;10375;49.136;10.366;2023-09-12T01:06:16;17.25;;;7.90;;
20431;SDS011;10375;49.136;10.366;2023-09-12T01:08:48;19.90;;;7.57;;
20431;SDS011;10375;49.136;10.366;2023-09-12T01:11:15;22.15;;;8.43;;
20431;SDS011;10375;49.136;10.366;2023-09-12T01:13:44;16.98;;;7.03;;
20431;SDS011;10375;49.136;10.366;2023-09-12T01:16:11;14.27;;;7.50;;
20431;SDS011;10375;49.136;10.366;2023-09-12T01:18:38;17.13;;;7.63;;
20431;SDS011;10375;49.136;10.366;2023-09-12T01:21:14;20.08;;;7.95;;
20431;SDS011;10375;49.136;10.366;2023-09-12T01:29:16;18.17;;;7.55;;
20431;SDS011;10375;49.136;10.366;2023-09-12T01:31:45;13.25;;;6.97;;
20431;SDS011;10375;49.136;10.366;2023-09-12T01:34:14;18.15;;;7.80;;
20431;SDS011;10375;49.136;10.366;2023-09-12T01:36:41;14.18;;;8.30;;
20431;SDS011;10375;49.136;10.366;2023-09-12T01:39:08;18.33;;;7.68;;
20431;SDS011;10375;49.136;10.366;2023-09-12T01:41:36;21.13;;;9.18;;
20431;SDS011;10375;49.136;10.366;2023-09-12T01:44:06;15.57;;;8.40;;
20431;SDS011;10375;49.136;10.366;2023-09-12T01:46:36;15.55;;;8.68;;
20431;SDS011;10375;49.136;10.366;2023-09-12T01:49:05;18.08;;;8.20;;
20431;SDS011;10375;49.136;10.366;2023-09-12T01:51:34;15.55;;;7.90;;
20431;SDS011;10375;49.136;10.366;2023-09-12T01:54:01;17.65;;;7.93;;
20431;SDS011;10375;49.136;10.366;2023-09-12T01:56:30;15.77;;;8.57;;
20431;SDS011;10375;49.136;10.366;2023-09-12T01:58:57;15.98;;;7.38;;
20431;SDS011;10375;49.136;10.366;2023-09-12T02:01:25;16.42;;;7.32;;
20431;SDS011;10375;49.136;10.366;2023-09-12T02:03:54;15.45;;;7.20;;
20431;SDS011;10375;49.136;10.366;2023-09-12T02:06:21;15.32;;;7.43;;
20431;SDS011;10375;49.136;10.366;2023-09-12T02:08:48;13.32;;;7.60;;
20431;SDS011;10375;49.136;10.366;2023-09-12T02:11:15;13.32;;;7.07;;
20431;SDS011;10375;49.136;10.366;2023-09-12T02:13:42;10.18;;;7.07;;
20431;SDS011;10375;49.136;10.366;2023-09-12T02:16:09;14.43;;;7.20;;
20431;SDS011;10375;49.136;10.366;2023-09-12T02:18:37;18.00;;;7.20;;
20431;SDS011;10375;49.136;10.366;2023-09-12T02:21:04;16.27;;;6.60;;
20431;SDS011;10375;49.136;10.366;2023-09-12T02:23:31;12.02;;;6.70;;
20431;SDS011;10375;49.136;10.366;2023-09-12T02:25:58;13.00;;;7.18;;
20431;SDS011;10375;49.136;10.366;2023-09-12T02:28:25;13.38;;;7.45;;
20431;SDS011;10375;49.136;10.366;2023-09-12T02:30:52;16.30;;;7.05;;
20431;SDS011;10375;49.136;10.366;2023-09-12T02:33:19;13.32;;;8.25;;
20431;SDS011;10375;49.136;10.366;2023-09-12T02:35:46;16.80;;;8.50;;
20431;SDS011;10375;49.136;10.366;2023-09-12T02:38:13;15.80;;;9.52;;
20431;SDS011;10375;49.136;10.366;2023-09-12T02:40:40;22.23;;;9.48;;
20431;SDS011;10375;49.136;10.366;2023-09-12T02:43:07;18.00;;;9.70;;
20431;SDS011;10375;49.136;10.366;2023-09-12T02:45:35;19.27;;;9.00;;
20431;SDS011;10375;49.136;10.366;2023-09-12T02:48:02;16.08;;;8.45;;
20431;SDS011;10375;49.136;10.366;2023-09-12T02:50:29;19.63;;;9.45;;
20431;SDS011;10375;49.136;10.366;2023-09-12T02:52:56;20.15;;;8.20;;
20431;SDS011;10375;49.136;10.366;2023-09-12T02:55:23;18.75;;;8.20;;
20431;SDS011;10375;49.136;10.366;2023-09-12T02:57:51;17.05;;;7.53;;
20431;SDS011;10375;49.136;10.366;2023-09-12T03:00:18;18.90;;;7.90;;
20431;SDS011;10375;49.136;10.366;2023-09-12T03:02:46;15.55;;;7.93;;
20431;SDS011;10375;49.136;10.366;2023-09-12T03:05:13;23.40;;;8.52;;
20431;SDS011;10375;49.136;10.366;2023-09-12T03:07:40;14.90;;;6.88;;
20431;SDS011;10375;49.136;10.366;2023-09-12T03:10:07;19.02;;;8.25;;
20431;SDS011;10375;49.136;10.366;2023-09-12T03:12:37;15.02;;;9.45;;
20431;SDS011;10375;49.136;10.366;2023-09-12T03:15:05;18.15;;;8.35;;
20431;SDS011;10375;49.136;10.366;2023-09-12T03:17:36;16.35;;;8.43;;
20431;SDS011;10375;49.136;10.366;2023-09-12T03:20:03;19.35;;;8.05;;
20431;SDS011;10375;49.136;10.366;2023-09-12T03:22:34;16.05;;;8.32;;
20431;SDS011;10375;49.136;10.366;2023-09-12T03:25:04;13.20;;;8.15;;
20431;SDS011;10375;49.136;10.366;2023-09-12T03:27:32;22.08;;;8.23;;
20431;SDS011;10375;49.136;10.366;2023-09-12T03:29:59;14.15;;;7.88;;
20431;SDS011;10375;49.136;10.366;2023-09-12T03:32:26;14.35;;;8.38;;
20431;SDS011;10375;49.136;10.366;2023-09-12T03:34:54;14.10;;;7.78;;
20431;SDS011;10375;49.136;10.366;2023-09-12T03:37:21;15.75;;;8.30;;
20431;SDS011;10375;49.136;10.366;2023-09-12T03:39:48;13.95;;;7.75;;
20431;SDS011;10375;49.136;10.366;2023-09-12T03:42:15;14.80;;;7.65;;
20431;SDS011;10375;49.136;10.366;2023-09-12T03:44:42;19.38;;;9.00;;
20431;SDS011;10375;49.136;10.366;2023-09-12T03:47:09;14.48;;;8.65;;
20431;SDS011;10375;49.136;10.366;2023-09-12T03:49:36;20.00;;;8.90;;
20431;SDS011;10375;49.136;10.366;2023-09-12T03:52:03;22.05;;;10.93;;
20431;SDS011;10375;49.136;10.366;2023-09-12T03:54:32;25.45;;;9.38;;
20431;SDS011;10375;49.136;10.366;2023-09-12T03:56:59;17.05;;;9.00;;
20431;SDS011;10375;49.136;10.366;2023-09-12T03:59:26;19.58;;;8.90;;
20431;SDS011;10375;49.136;10.366;2023-09-12T04:01:53;16.60;;;9.00;;
20431;SDS011;10375;49.136;10.366;2023-09-12T04:04:20;15.82;;;8.38;;
20431;SDS011;10375;49.136;10.366;2023-09-12T04:06:48;16.13;;;8.85;;
20431;SDS011;10375;49.136;10.366;2023-09-12T04:09:15;20.05;;;8.90;;
20431;SDS011;10375;49.136;10.366;2023-09-12T04:11:43;11.93;;;8.30;;
20431;SDS011;10375;49.136;10.366;2023-09-12T04:14:13;16.83;;;8.27;;
20431;SDS011;10375;49.136;10.366;2023-09-12T04:16:41;14.93;;;8.15;;
20431;SDS011;10375;49.136;10.366;2023-09-12T04:19:08;17.60;;;8.63;;
20431;SDS011;10375;49.136;10.366;2023-09-12T04:21:36;18.98;;;8.50;;
20431;SDS011;10375;49.136;10.366;2023-09-12T04:24:03;16.30;;;8.18;;
20431;SDS011;10375;49.136;10.366;2023-09-12T04:26:30;17.52;;;8.95;;
20431;SDS011;10375;49.136;10.366;2023-09-12T04:28:57;15.43;;;8.73;;
20431;SDS011;10375;49.136;10.366;2023-09-12T04:31:24;17.02;;;8.32;;
20431;SDS011;10375;49.136;10.366;2023-09-12T04:33:52;17.10;;;8.38;;
20431;SDS011;10375;49.136;10.366;2023-09-12T04:36:19;19.15;;;8.55;;
20431;SDS011;10375;49.136;10.366;2023-09-12T04:38:47;15.35;;;7.43;;
20431;SDS011;10375;49.136;10.366;2023-09-12T04:41:14;23.73;;;8.73;;
20431;SDS011;10375;49.136;10.366;2023-09-12T04:43:43;19.83;;;8.55;;
20431;SDS011;10375;49.136;10.366;2023-09-12T04:46:11;15.07;;;7.70;;
20431;SDS011;10375;49.136;10.366;2023-09-12T04:48:39;19.17;;;8.60;;
20431;SDS011;10375;49.136;10.366;2023-09-12T04:51:07;18.10;;;8.65;;
20431;SDS011;10375;49.136;10.366;2023-09-12T04:53:34;18.80;;;7.97;;
20431;SDS011;10375;49.136;10.366;2023-09-12T04:56:02;20.83;;;8.70;;
20431;SDS011;10375;49.136;10.366;2023-09-12T04:58:29;17.00;;;8.98;;
20431;SDS011;10375;49.136;10.366;2023-09-12T05:00:57;14.13;;;8.15;;
20431;SDS011;10375;49.136;10.366;2023-09-12T05:03:24;18.13;;;8.85;;
20431;SDS011;10375;49.136;10.366;2023-09-12T05:05:53;12.93;;;7.97;;
20431;SDS011;10375;49.136;10.366;2023-09-12T05:08:20;16.42;;;7.50;;
20431;SDS011;10375;49.136;10.366;2023-09-12T05:10:47;13.38;;;7.85;;
20431;SDS011;10375;49.136;10.366;2023-09-12T05:13:14;14.20;;;8.52;;
20431;SDS011;10375;49.136;10.366;2023-09-12T05:15:41;28.48;;;8.40;;
20431;SDS011;10375;49.136;10.366;2023-09-12T05:18:10;13.43;;;8.60;;
20431;SDS011;10375;49.136;10.366;2023-09-12T05:20:37;15.07;;;7.32;;
20431;SDS011;10375;49.136;10.366;2023-09-12T05:23:04;25.30;;;8.40;;
20431;SDS011;10375;49.136;10.366;2023-09-12T05:25:31;21.27;;;9.73;;
20431;SDS011;10375;49.136;10.366;2023-09-12T05:27:58;45.13;;;9.43;;
20431;SDS011;10375;49.136;10.366;2023-09-12T05:30:25;17.38;;;8.55;;
20431;SDS011;10375;49.136;10.366;2023-09-12T05:32:52;18.80;;;8.02;;
20431;SDS011;10375;49.136;10.366;2023-09-12T05:35:20;32.75;;;9.18;;
20431;SDS011;10375;49.136;10.366;2023-09-12T05:37:48;51.72;;;10.15;;
20431;SDS011;10375;49.136;10.366;2023-09-12T05:40:16;45.92;;;10.43;;
20431;SDS011;10375;49.136;10.366;2023-09-12T05:42:44;36.13;;;10.10;;
20431;SDS011;10375;49.136;10.366;2023-09-12T05:45:11;16.65;;;9.52;;
20431;SDS011;10375;49.136;10.366;2023-09-12T05:47:38;19.27;;;9.25;;
20431;SDS011;10375;49.136;10.366;2023-09-12T05:50:06;16.27;;;8.43;;
20431;SDS011;10375;49.136;10.366;2023-09-12T05:52:33;23.67;;;9.43;;
20431;SDS011;10375;49.136;10.366;2023-09-12T05:55:00;24.33;;;9.48;;
20431;SDS011;10375;49.136;10.366;2023-09-12T05:57:27;28.05;;;10.57;;
20431;SDS011;10375;49.136;10.366;2023-09-12T05:59:54;26.23;;;10.40;;
20431;SDS011;10375;49.136;10.366;2023-09-12T06:02:21;27.55;;;9.50;;
20431;SDS011;10375;49.136;10.366;2023-09-12T06:04:49;15.65;;;8.85;;
20431;SDS011;10375;49.136;10.366;2023-09-12T06:07:16;18.73;;;7.32;;
20431;SDS011;10375;49.136;10.366;2023-09-12T06:09:43;15.85;;;7.15;;
20431;SDS011;10375;49.136;10.366;2023-09-12T06:12:11;16.00;;;7.60;;
20431;SDS011;10375;49.136;10.366;2023-09-12T06:14:38;13.85;;;6.63;;
20431;SDS011;10375;49.136;10.366;2023-09-12T06:17:05;13.95;;;6.88;;
20431;SDS011;10375;49.136;10.366;2023-09-12T06:19:32;13.40;;;7.28;;
20431;SDS011;10375;49.136;10.366;2023-09-12T06:21:59;19.70;;;7.93;;
20431;SDS011;10375;49.136;10.366;2023-09-12T06:24:26;16.77;;;10.10;;
20431;SDS011;10375;49.136;10.366;2023-09-12T06:26:53;16.15;;;7.45;;
20431;SDS011;10375;49.136;10.366;2023-09-12T06:29:20;16.90;;;7.68;;
20431;SDS011;10375;49.136;10.366;2023-09-12T06:31:47;17.48;;;8.63;;
20431;SDS011;10375;49.136;10.366;2023-09-12T06:34:14;17.38;;;9.45;;
20431;SDS011;10375;49.136;10.366;2023-09-12T06:36:42;27.05;;;12.48;;
20431;SDS011;10375;49.136;10.366;2023-09-12T06:39:11;14.30;;;10.65;;
20431;SDS011;10375;49.136;10.366;2023-09-12T06:41:38;19.10;;;9.27;;
20431;SDS011;10375;49.136;10.366;2023-09-12T06:44:05;18.30;;;8.93;;
20431;SDS011;10375;49.136;10.366;2023-09-12T06:46:34;25.65;;;10.10;;
20431;SDS011;10375;49.136;10.366;2023-09-12T06:49:04;184.45;;;20.38;;
20431;SDS011;10375;49.136;10.366;2023-09-12T06:51:31;20.63;;;10.25;;
20431;SDS011;10375;49.136;10.366;2023-09-12T06:54:04;22.75;;;9.68;;
20431;SDS011;10375;49.136;10.366;2023-09-12T06:56:31;25.13;;;11.23;;
20431;SDS011;10375;49.136;10.366;2023-09-12T06:58:59;51.28;;;10.38;;
20431;SDS011;10375;49.136;10.366;2023-09-12T07:01:26;36.63;;;9.32;;
20431;SDS011;10375;49.136;10.366;2023-09-12T07:03:53;16.77;;;8.30;;
20431;SDS011;10375;49.136;10.366;2023-09-12T07:06:22;14.73;;;7.65;;
20431;SDS011;10375;49.136;10.366;2023-09-12T07:08:50;18.52;;;9.82;;
20431;SDS011;10375;49.136;10.366;2023-09-12T07:11:17;14.95;;;8.80;;
20431;SDS011;10375;49.136;10.366;2023-09-12T07:13:45;23.00;;;9.07;;
20431;SDS011;10375;49.136;10.366;2023-09-12T07:16:13;16.60;;;8.68;;
20431;SDS011;10375;49.136;10.366;2023-09-12T07:18:40;17.52;;;9.10;;
20431;SDS011;10375;49.136;10.366;2023-09-12T07:21:07;24.10;;;8.93;;
20431;SDS011;10375;49.136;10.366;2023-09-12T07:23:34;18.90;;;9.43;;
20431;SDS011;10375;49.136;10.366;2023-09-12T07:26:01;12.75;;;8.68;;
20431;SDS011;10375;49.136;10.366;2023-09-12T07:28:30;21.63;;;9.27;;
20431;SDS011;10375;49.136;10.366;2023-09-12T07:30:57;46.72;;;9.77;;
20431;SDS011;10375;49.136;10.366;2023-09-12T07:33:25;89.47;;;11.90;;
20431;SDS011;10375;49.136;10.366;2023-09-12T07:35:52;16.08;;;8.15;;
20431;SDS011;10375;49.136;10.366;2023-09-12T07:38:20;18.63;;;9.07;;
20431;SDS011;10375;49.136;10.366;2023-09-12T07:40:48;15.05;;;8.05;;
20431;SDS011;10375;49.136;10.366;2023-09-12T07:43:15;19.20;;;8.32;;
20431;SDS011;10375;49.136;10.366;2023-09-12T07:45:42;21.60;;;9.27;;
20431;SDS011;10375;49.136;10.366;2023-09-12T07:48:10;14.30;;;8.43;;
20431;SDS011;10375;49.136;10.366;2023-09-12T07:50:40;19.48;;;8.50;;
20431;SDS011;10375;49.136;10.366;2023-09-12T07:53:07;13.35;;;8.20;;
20431;SDS011;10375;49.136;10.366;2023-09-12T07:55:37;15.63;;;9.00;;
20431;SDS011;10375;49.136;10.366;2023-09-12T07:58:16;16.08;;;8.27;;
20431;SDS011;10375;49.136;10.366;2023-09-12T08:00:48;13.48;;;6.88;;
20431;SDS011;10375;49.136;10.366;2023-09-12T08:03:15;23.98;;;8.55;;
20431;SDS011;10375;49.136;10.366;2023-09-12T08:05:42;19.75;;;8.50;;
20431;SDS011;10375;49.136;10.366;2023-09-12T08:08:09;20.42;;;8.00;;
20431;SDS011;10375;49.136;10.366;2023-09-12T08:10:37;13.10;;;8.77;;
20431;SDS011;10375;49.136;10.366;2023-09-12T08:13:04;18.35;;;8.57;;
20431;SDS011;10375;49.136;10.366;2023-09-12T08:15:31;92.03;;;11.30;;
20431;SDS011;10375;49.136;10.366;2023-09-12T08:17:58;19.38;;;8.73;;
20431;SDS011;10375;49.136;10.366;2023-09-12T08:20:25;12.27;;;8.00;;
20431;SDS011;10375;49.136;10.366;2023-09-12T08:22:53;13.70;;;8.18;;
20431;SDS011;10375;49.136;10.366;2023-09-12T08:25:20;20.20;;;9.85;;
20431;SDS011;10375;49.136;10.366;2023-09-12T08:27:47;25.33;;;9.38;;
20431;SDS011;10375;49.136;10.366;2023-09-12T08:30:14;18.85;;;8.73;;
20431;SDS011;10375;49.136;10.366;2023-09-12T08:32:42;28.38;;;8.95;;
20431;SDS011;10375;49.136;10.366;2023-09-12T08:35:12;16.50;;;8.50;;
20431;SDS011;10375;49.136;10.366;2023-09-12T08:37:40;19.90;;;9.18;;
20431;SDS011;10375;49.136;10.366;2023-09-12T08:40:09;17.50;;;8.68;;
20431;SDS011;10375;49.136;10.366;2023-09-12T08:42:38;22.50;;;8.93;;
20431;SDS011;10375;49.136;10.366;2023-09-12T08:45:16;19.83;;;8.25;;
20431;SDS011;10375;49.136;10.366;2023-09-12T08:47:45;15.82;;;7.28;;
20431;SDS011;10375;49.136;10.366;2023-09-12T08:50:16;19.70;;;7.82;;
20431;SDS011;10375;49.136;10.366;2023-09-12T08:52:44;13.20;;;7.30;;
20431;SDS011;10375;49.136;10.366;2023-09-12T08:55:32;12.10;;;7.13;;
20431;SDS011;10375;49.136;10.366;2023-09-12T08:58:02;19.35;;;7.80;;
20431;SDS011;10375;49.136;10.366;2023-09-12T09:00:30;17.77;;;6.78;;
20431;SDS011;10375;49.136;10.366;2023-09-12T09:02:58;16.08;;;6.32;;
20431;SDS011;10375;49.136;10.366;2023-09-12T09:05:26;15.73;;;6.50;;
20431;SDS011;10375;49.136;10.366;2023-09-12T09:07:55;14.73;;;6.28;;
20431;SDS011;10375;49.136;10.366;2023-09-12T09:10:23;23.17;;;7.55;;
20431;SDS011;10375;49.136;10.366;2023-09-12T09:13:12;126.45;;;14.32;;
20431;SDS011;10375;49.136;10.366;2023-09-12T09:15:39;14.88;;;6.80;;
20431;SDS011;10375;49.136;10.366;2023-09-12T09:18:09;10.45;;;5.70;;
20431;SDS011;10375;49.136;10.366;2023-09-12T09:20:39;15.65;;;6.30;;
20431;SDS011;10375;49.136;10.366;2023-09-12T09:23:08;34.70;;;7.60;;
20431;SDS011;10375;49.136;10.366;2023-09-12T09:25:41;10.93;;;6.10;;
20431;SDS011;10375;49.136;10.366;2023-09-12T09:28:22;10.55;;;5.97;;
20431;SDS011;10375;49.136;10.366;2023-09-12T09:30:51;17.15;;;7.15;;
20431;SDS011;10375;49.136;10.366;2023-09-12T09:33:20;13.82;;;6.55;;
20431;SDS011;10375;49.136;10.366;2023-09-12T09:35:49;33.10;;;7.65;;
20431;SDS011;10375;49.136;10.366;2023-09-12T09:38:21;11.93;;;6.05;;
20431;SDS011;10375;49.136;10.366;2023-09-12T09:40:49;16.65;;;6.32;;
20431;SDS011;10375;49.136;10.366;2023-09-12T09:43:20;17.77;;;6.97;;
20431;SDS011;10375;49.136;10.366;2023-09-12T09:45:48;10.48;;;5.68;;
20431;SDS011;10375;49.136;10.366;2023-09-12T09:48:23;22.02;;;6.85;;
20431;SDS011;10375;49.136;10.366;2023-09-12T09:51:03;12.85;;;6.18;;
20431;SDS011;10375;49.136;10.366;2023-09-12T09:53:30;27.98;;;6.35;;
20431;SDS011;10375;49.136;10.366;2023-09-12T09:58:48;7.78;;;6.22;;
20431;SDS011;10375;49.136;10.366;2023-09-12T10:01:27;11.55;;;6.75;;
20431;SDS011;10375;49.136;10.366;2023-09-12T10:03:59;8.85;;;6.07;;
20431;SDS011;10375;49.136;10.366;2023-09-12T10:06:28;10.30;;;5.50;;
20431;SDS011;10375;49.136;10.366;2023-09-12T10:08:58;8.98;;;6.20;;
20431;SDS011;10375;49.136;10.366;2023-09-12T10:11:27;13.35;;;5.75;;
20431;SDS011;10375;49.136;10.366;2023-09-12T10:13:59;13.30;;;6.10;;
20431;SDS011;10375;49.136;10.366;2023-09-12T10:16:30;13.95;;;6.63;;
20431;SDS011;10375;49.136;10.366;2023-09-12T10:19:04;10.48;;;5.60;;
20431;SDS011;10375;49.136;10.366;2023-09-12T10:21:37;8.45;;;6.25;;
20431;SDS011;10375;49.136;10.366;2023-09-12T10:24:17;11.25;;;6.07;;
20431;SDS011;10375;49.136;10.366;2023-09-12T10:26:49;12.25;;;5.68;;
20431;SDS011;10375;49.136;10.366;2023-09-12T10:29:18;12.55;;;6.20;;
20431;SDS011;10375;49.136;10.366;2023-09-12T10:31:46;32.75;;;7.65;;
20431;SDS011;10375;49.136;10.366;2023-09-12T10:34:13;8.40;;;5.90;;
20431;SDS011;10375;49.136;10.366;2023-09-12T10:36:44;13.82;;;6.13;;
20431;SDS011;10375;49.136;10.366;2023-09-12T10:39:12;10.10;;;6.22;;
20431;SDS011;10375;49.136;10.366;2023-09-12T10:41:41;32.15;;;6.93;;
20431;SDS011;10375;49.136;10.366;2023-09-12T10:44:15;7.57;;;5.90;;
20431;SDS011;10375;49.136;10.366;2023-09-12T10:46:43;7.72;;;6.47;;
20431;SDS011;10375;49.136;10.366;2023-09-12T10:49:13;12.38;;;6.45;;
20431;SDS011;10375;49.136;10.366;2023-09-12T10:51:41;7.55;;;5.88;;
20431;SDS011;10375;49.136;10.366;2023-09-12T10:54:14;10.18;;;6.30;;
20431;SDS011;10375;49.136;10.366;2023-09-12T10:56:42;10.05;;;5.28;;
20431;SDS011;10375;49.136;10.366;2023-09-12T10:59:12;10.50;;;6.03;;
20431;SDS011;10375;49.136;10.366;2023-09-12T11:01:40;10.27;;;5.80;;
20431;SDS011;10375;49.136;10.366;2023-09-12T11:06:54;6.95;;;5.70;;
20431;SDS011;10375;49.136;10.366;2023-09-12T11:09:23;10.10;;;6.40;;
20431;SDS011;10375;49.136;10.366;2023-09-12T11:14:21;10.07;;;5.55;;
20431;SDS011;10375;49.136;10.366;2023-09-12T11:19:43;10.80;;;6.32;;
20431;SDS011;10375;49.136;10.366;2023-09-12T11:24:52;10.50;;;6.40;;
20431;SDS011;10375;49.136;10.366;2023-09-12T11:27:25;9.23;;;6.55;;
20431;SDS011;10375;49.136;10.366;2023-09-12T11:30:18;10.90;;;5.82;;
20431;SDS011;10375;49.136;10.366;2023-09-12T11:32:47;8.55;;;5.95;;
20431;SDS011;10375;49.136;10.366;2023-09-12T11:35:23;17.38;;;10.75;;
20431;SDS011;10375;49.136;10.366;2023-09-12T11:37:52;13.18;;;6.03;;
20431;SDS011;10375;49.136;10.366;2023-09-12T11:43:00;11.75;;;5.10;;
20431;SDS011;10375;49.136;10.366;2023-09-12T11:45:28;12.27;;;5.10;;
20431;SDS011;10375;49.136;10.366;2023-09-12T11:47:56;38.67;;;6.95;;
20431;SDS011;10375;49.136;10.366;2023-09-12T11:53:00;17.65;;;6.07;;
20431;SDS011;10375;49.136;10.366;2023-09-12T11:55:41;7.82;;;5.00;;
20431;SDS011;10375;49.136;10.366;2023-09-12T11:58:10;22.05;;;5.78;;
20431;SDS011;10375;49.136;10.366;2023-09-12T12:00:49;7.10;;;5.75;;
20431;SDS011;10375;49.136;10.366;2023-09-12T12:03:22;11.73;;;5.88;;
20431;SDS011;10375;49.136;10.366;2023-09-12T12:05:51;8.13;;;5.15;;
20431;SDS011;10375;49.136;10.366;2023-09-12T12:08:20;10.55;;;5.75;;
20431;SDS011;10375;49.136;10.366;2023-09-12T12:10:57;8.68;;;5.75;;
20431;SDS011;10375;49.136;10.366;2023-09-12T12:13:25;12.43;;;5.90;;
20431;SDS011;10375;49.136;10.366;2023-09-12T12:15:55;10.82;;;5.28;;
20431;SDS011;10375;49.136;10.366;2023-09-12T12:18:23;11.50;;;5.20;;
20431;SDS011;10375;49.136;10.366;2023-09-12T12:20:51;12.68;;;5.60;;
20431;SDS011;10375;49.136;10.366;2023-09-12T12:23:18;5.55;;;4.82;;
20431;SDS011;10375;49.136;10.366;2023-09-12T12:25:45;14.35;;;5.50;;
20431;SDS011;10375;49.136;10.366;2023-09-12T12:28:12;12.30;;;5.13;;
20431;SDS011;10375;49.136;10.366;2023-09-12T12:30:41;11.30;;;4.75;;
20431;SDS011;10375;49.136;10.366;2023-09-12T12:33:08;14.57;;;5.07;;
20431;SDS011;10375;49.136;10.366;2023-09-12T12:36:03;7.22;;;5.50;;
20431;SDS011;10375;49.136;10.366;2023-09-12T12:38:35;6.07;;;5.18;;
20431;SDS011;10375;49.136;10.366;2023-09-12T12:41:16;9.95;;;5.38;;
20431;SDS011;10375;49.136;10.366;2023-09-12T12:43:49;8.43;;;5.43;;
20431;SDS011;10375;49.136;10.366;2023-09-12T12:46:21;9.50;;;4.45;;
20431;SDS011;10375;49.136;10.366;2023-09-12T12:48:48;55.30;;;9.20;;
20431;SDS011;10375;49.136;10.366;2023-09-12T12:51:17;31.85;;;6.00;;
20431;SDS011;10375;49.136;10.366;2023-09-12T12:53:47;212.05;;;18.23;;
20431;SDS011;10375;49.136;10.366;2023-09-12T12:56:21;18.65;;;5.25;;
20431;SDS011;10375;49.136;10.366;2023-09-12T12:58:50;10.52;;;5.47;;
20431;SDS011;10375;49.136;10.366;2023-09-12T13:01:19;9.43;;;4.72;;
20431;SDS011;10375;49.136;10.366;2023-09-12T13:03:47;9.48;;;4.88;;
20431;SDS011;10375;49.136;10.366;2023-09-12T13:06:17;10.93;;;4.80;;
20431;SDS011;10375;49.136;10.366;2023-09-12T13:08:45;7.28;;;4.80;;
20431;SDS011;10375;49.136;10.366;2023-09-12T13:11:13;9.73;;;4.60;;
20431;SDS011;10375;49.136;10.366;2023-09-12T13:13:44;7.20;;;4.43;;
20431;SDS011;10375;49.136;10.366;2023-09-12T13:16:13;8.35;;;4.72;;
20431;SDS011;10375;49.136;10.366;2023-09-12T13:18:41;10.30;;;4.43;;
20431;SDS011;10375;49.136;10.366;2023-09-12T13:21:08;7.45;;;4.00;;
20431;SDS011;10375;49.136;10.366;2023-09-12T13:23:36;9.20;;;4.82;;
20431;SDS011;10375;49.136;10.366;2023-09-12T13:26:06;11.40;;;4.35;;
20431;SDS011;10375;49.136;10.366;2023-09-12T13:28:35;9.13;;;4.70;;
20431;SDS011;10375;49.136;10.366;2023-09-12T13:31:02;12.48;;;4.95;;
20431;SDS011;10375;49.136;10.366;2023-09-12T13:33:30;7.65;;;5.00;;
20431;SDS011;10375;49.136;10.366;2023-09-12T13:35:58;5.55;;;4.40;;
20431;SDS011;10375;49.136;10.366;2023-09-12T13:38:25;7.88;;;4.53;;
20431;SDS011;10375;49.136;10.366;2023-09-12T13:40:52;9.13;;;4.47;;
20431;SDS011;10375;49.136;10.366;2023-09-12T13:43:20;8.10;;;4.30;;
20431;SDS011;10375;49.136;10.366;2023-09-12T13:45:47;11.35;;;4.70;;
20431;SDS011;10375;49.136;10.366;2023-09-12T13:48:14;20.65;;;4.80;;
20431;SDS011;10375;49.136;10.366;2023-09-12T13:50:42;11.02;;;5.05;;
20431;SDS011;10375;49.136;10.366;2023-09-12T13:53:09;9.40;;;5.18;;
20431;SDS011;10375;49.136;10.366;2023-09-12T13:55:37;13.23;;;4.97;;
20431;SDS011;10375;49.136;10.366;2023-09-12T14:00:45;8.45;;;4.70;;
20431;SDS011;10375;49.136;10.366;2023-09-12T14:03:12;4.82;;;4.30;;
20431;SDS011;10375;49.136;10.366;2023-09-12T14:05:40;8.43;;;4.68;;
20431;SDS011;10375;49.136;10.366;2023-09-12T14:08:08;6.47;;;3.90;;
20431;SDS011;10375;49.136;10.366;2023-09-12T14:10:35;10.80;;;4.68;;
20431;SDS011;10375;49.136;10.366;2023-09-12T14:13:05;7.55;;;4.53;;
20431;SDS011;10375;49.136;10.366;2023-09-12T14:15:47;6.85;;;4.43;;
20431;SDS011;10375;49.136;10.366;2023-09-12T14:18:17;13.50;;;4.95;;
20431;SDS011;10375;49.136;10.366;2023-09-12T14:20:47;10.00;;;4.68;;
20431;SDS011;10375;49.136;10.366;2023-09-12T14:23:14;11.02;;;5.07;;
20431;SDS011;10375;49.136;10.366;2023-09-12T14:25:43;12.07;;;4.70;;
20431;SDS011;10375;49.136;10.366;2023-09-12T14:28:11;10.95;;;5.10;;
20431;SDS011;10375;49.136;10.366;2023-09-12T14:30:41;11.77;;;4.63;;
20431;SDS011;10375;49.136;10.366;2023-09-12T14:33:11;7.18;;;4.72;;
20431;SDS011;10375;49.136;10.366;2023-09-12T14:35:43;6.25;;;4.78;;
20431;SDS011;10375;49.136;10.366;2023-09-12T14:38:10;15.50;;;5.00;;
20431;SDS011;10375;49.136;10.366;2023-09-12T14:40:38;8.18;;;5.03;;
20431;SDS011;10375;49.136;10.366;2023-09-12T14:43:10;14.38;;;5.30;;
20431;SDS011;10375;49.136;10.366;2023-09-12T14:45:38;10.75;;;5.00;;
20431;SDS011;10375;49.136;10.366;2023-09-12T14:48:05;8.55;;;5.45;;
20431;SDS011;10375;49.136;10.366;2023-09-12T14:50:34;8.27;;;4.88;;
20431;SDS011;10375;49.136;10.366;2023-09-12T14:53:08;7.43;;;4.50;;
20431;SDS011;10375;49.136;10.366;2023-09-12T14:55:36;7.28;;;4.13;;
20431;SDS011;10375;49.136;10.366;2023-09-12T14:58:03;7.10;;;5.15;;
20431;SDS011;10375;49.136;10.366;2023-09-12T15:00:30;7.35;;;4.22;;